sensor_id;sensor_type;location;lat;lon;timestamp;pressure;altitude;pressure_sealevel;temperature;humidity
18795;BME280;29610;49.022;12.114;2023-11-19T00:01:19;97857.22;;;7.04;100.00
18795;BME280;29610;49.022;12.114;2023-11-19T00:03:48;97850.44;;;7.06;100.00
18795;BME280;29610;49.022;12.114;2023-11-19T00:06:17;97838.13;;;7.00;100.00
18795;BME280;29610;49.022;12.114;2023-11-19T00:08:46;97828.31;;;7.04;100.00
18795;BME280;29610;49.022;12.114;2023-11-19T00:11:14;97825.00;;;7.07;100.00
18795;BME280;29610;49.022;12.114;2023-11-19T00:13:43;97820.03;;;7.14;100.00
18795;BME280;29610;49.022;12.114;2023-11-19T00:16:11;97814.22;;;7.07;100.00
18795;BME280;29610;49.022;12.114;2023-11-19T00:18:39;97819.31;;;7.09;100.00
18795;BME280;29610;49.022;12.114;2023-11-19T00:21:07;97811.97;;;6.96;100.00
18795;BME280;29610;49.022;12.114;2023-11-19T00:23:37;97798.94;;;6.84;100.00
18795;BME280;29610;49.022;12.114;2023-11-19T00:26:06;97800.81;;;6.84;100.00
18795;BME280;29610;49.022;12.114;2023-11-19T00:28:37;97800.06;;;6.97;100.00
18795;BME280;29610;49.022;12.114;2023-11-19T00:31:06;97797.78;;;7.04;100.00
18795;BME280;29610;49.022;12.114;2023-11-19T00:33:34;97793.19;;;7.04;100.00
18795;BME280;29610;49.022;12.114;2023-11-19T00:36:15;97791.78;;;7.07;100.00
18795;BME280;29610;49.022;12.114;2023-11-19T00:38:43;97792.28;;;7.09;100.00
18795;BME280;29610;49.022;12.114;2023-11-19T00:41:12;97792.88;;;7.06;100.00
18795;BME280;29610;49.022;12.114;2023-11-19T00:43:43;97777.97;;;7.08;100.00
18795;BME280;29610;49.022;12.114;2023-11-19T00:46:11;97771.66;;;6.99;100.00
18795;BME280;29610;49.022;12.114;2023-11-19T00:48:43;97778.47;;;6.97;100.00
18795;BME280;29610;49.022;12.114;2023-11-19T00:51:14;97769.69;;;6.86;100.00
18795;BME280;29610;49.022;12.114;2023-11-19T00:53:42;97773.53;;;6.99;100.00
18795;BME280;29610;49.022;12.114;2023-11-19T00:56:12;97768.53;;;6.92;100.00
18795;BME280;29610;49.022;12.114;2023-11-19T00:58:40;97765.94;;;7.01;100.00
18795;BME280;29610;49.022;12.114;2023-11-19T01:01:11;97760.63;;;6.96;100.00
18795;BME280;29610;49.022;12.114;2023-11-19T01:03:39;97758.75;;;6.96;100.00
18795;BME280;29610;49.022;12.114;2023-11-19T01:06:08;97759.63;;;6.92;100.00
18795;BME280;29610;49.022;12.114;2023-11-19T01:08:36;97756.50;;;6.85;100.00
18795;BME280;29610;49.022;12.114;2023-11-19T01:11:04;97755.81;;;6.93;100.00
18795;BME280;29610;49.022;12.114;2023-11-19T01:13:34;97760.16;;;6.94;100.00
18795;BME280;29610;49.022;12.114;2023-11-19T01:16:03;97752.81;;;6.94;100.00
18795;BME280;29610;49.022;12.114;2023-11-19T01:18:31;97750.84;;;7.00;100.00
18795;BME280;29610;49.022;12.114;2023-11-19T01:21:00;97746.44;;;7.04;100.00
18795;BME280;29610;49.022;12.114;2023-11-19T01:23:28;97750.34;;;6.98;100.00
18795;BME280;29610;49.022;12.114;2023-11-19T01:25:56;97745.31;;;6.91;100.00
18795;BME280;29610;49.022;12.114;2023-11-19T01:28:25;97738.22;;;6.95;100.00
18795;BME280;29610;49.022;12.114;2023-11-19T01:30:54;97743.34;;;6.97;100.00
18795;BME280;29610;49.022;12.114;2023-11-19T01:33:23;97741.13;;;6.99;100.00
18795;BME280;29610;49.022;12.114;2023-11-19T01:35:51;97739.31;;;6.94;100.00
18795;BME280;29610;49.022;12.114;2023-11-19T01:38:20;97743.72;;;6.90;100.00
18795;BME280;29610;49.022;12.114;2023-11-19T01:40:48;97742.09;;;6.89;100.00
18795;BME280;29610;49.022;12.114;2023-11-19T01:43:34;97722.50;;;6.97;100.00
18795;BME280;29610;49.022;12.114;2023-11-19T01:46:05;97721.44;;;6.98;100.00
18795;BME280;29610;49.022;12.114;2023-11-19T01:48:40;97735.44;;;7.00;100.00
18795;BME280;29610;49.022;12.114;2023-11-19T01:51:12;97720.53;;;7.03;100.00
18795;BME280;29610;49.022;12.114;2023-11-19T01:53:44;97707.31;;;7.01;100.00
18795;BME280;29610;49.022;12.114;2023-11-19T01:56:15;97706.22;;;7.02;100.00
18795;BME280;29610;49.022;12.114;2023-11-19T01:58:45;97705.59;;;7.05;100.00
18795;BME280;29610;49.022;12.114;2023-11-19T02:01:16;97722.03;;;7.09;100.00
18795;BME280;29610;49.022;12.114;2023-11-19T02:03:44;97709.22;;;7.01;100.00
18795;BME280;29610;49.022;12.114;2023-11-19T02:06:14;97717.75;;;7.08;100.00
18795;BME280;29610;49.022;12.114;2023-11-19T02:08:43;97712.22;;;6.99;100.00
18795;BME280;29610;49.022;12.114;2023-11-19T02:11:12;97709.22;;;7.01;100.00
18795;BME280;29610;49.022;12.114;2023-11-19T02:13:41;97697.19;;;6.93;100.00
18795;BME280;29610;49.022;12.114;2023-11-19T02:16:10;97702.31;;;6.95;100.00
18795;BME280;29610;49.022;12.114;2023-11-19T02:18:40;97701.00;;;6.92;100.00
18795;BME280;29610;49.022;12.114;2023-11-19T02:21:08;97702.59;;;7.07;100.00
18795;BME280;29610;49.022;12.114;2023-11-19T02:23:37;97691.09;;;7.01;100.00
18795;BME280;29610;49.022;12.114;2023-11-19T02:26:21;97686.22;;;7.03;100.00
18795;BME280;29610;49.022;12.114;2023-11-19T02:28:55;97684.09;;;7.00;100.00
18795;BME280;29610;49.022;12.114;2023-11-19T02:31:23;97687.00;;;7.04;100.00
18795;BME280;29610;49.022;12.114;2023-11-19T02:33:54;97669.66;;;6.91;100.00
18795;BME280;29610;49.022;12.114;2023-11-19T02:36:23;97667.38;;;6.98;100.00
18795;BME280;29610;49.022;12.114;2023-11-19T02:38:51;97653.88;;;6.98;100.00
18795;BME280;29610;49.022;12.114;2023-11-19T02:41:19;97641.28;;;6.94;100.00
18795;BME280;29610;49.022;12.114;2023-11-19T02:43:47;97636.66;;;6.94;100.00
18795;BME280;29610;49.022;12.114;2023-11-19T02:46:18;97626.56;;;7.00;100.00
18795;BME280;29610;49.022;12.114;2023-11-19T02:48:46;97619.66;;;6.94;100.00
18795;BME280;29610;49.022;12.114;2023-11-19T02:51:15;97616.44;;;6.92;100.00
18795;BME280;29610;49.022;12.114;2023-11-19T02:53:43;97621.56;;;6.93;100.00
18795;BME280;29610;49.022;12.114;2023-11-19T02:56:11;97627.47;;;6.95;100.00
18795;BME280;29610;49.022;12.114;2023-11-19T02:58:47;97626.53;;;6.86;100.00
18795;BME280;29610;49.022;12.114;2023-11-19T03:01:23;97628.03;;;6.79;100.00
18795;BME280;29610;49.022;12.114;2023-11-19T03:04:00;97633.75;;;6.91;100.00
18795;BME280;29610;49.022;12.114;2023-11-19T03:06:30;97624.03;;;6.76;100.00
18795;BME280;29610;49.022;12.114;2023-11-19T03:08:58;97622.75;;;6.87;100.00
18795;BME280;29610;49.022;12.114;2023-11-19T03:11:32;97628.75;;;6.84;100.00
18795;BME280;29610;49.022;12.114;2023-11-19T03:14:01;97624.53;;;6.78;100.00
18795;BME280;29610;49.022;12.114;2023-11-19T03:16:31;97625.41;;;6.74;100.00
18795;BME280;29610;49.022;12.114;2023-11-19T03:18:59;97627.22;;;6.78;100.00
18795;BME280;29610;49.022;12.114;2023-11-19T03:21:28;97623.66;;;6.83;100.00
18795;BME280;29610;49.022;12.114;2023-11-19T03:23:58;97631.94;;;6.86;100.00
18795;BME280;29610;49.022;12.114;2023-11-19T03:26:27;97625.94;;;6.89;100.00
18795;BME280;29610;49.022;12.114;2023-11-19T03:28:55;97630.66;;;6.84;100.00
18795;BME280;29610;49.022;12.114;2023-11-19T03:31:24;97627.03;;;6.88;100.00
18795;BME280;29610;49.022;12.114;2023-11-19T03:33:54;97616.34;;;6.83;100.00
18795;BME280;29610;49.022;12.114;2023-11-19T03:36:31;97617.53;;;6.77;100.00
18795;BME280;29610;49.022;12.114;2023-11-19T03:39:00;97611.13;;;6.73;100.00
18795;BME280;29610;49.022;12.114;2023-11-19T03:41:30;97611.84;;;6.79;100.00
18795;BME280;29610;49.022;12.114;2023-11-19T03:44:08;97612.94;;;6.78;100.00
18795;BME280;29610;49.022;12.114;2023-11-19T03:46:36;97612.69;;;6.61;100.00
18795;BME280;29610;49.022;12.114;2023-11-19T03:49:06;97607.00;;;6.62;100.00
18795;BME280;29610;49.022;12.114;2023-11-19T03:51:34;97604.72;;;6.56;100.00
18795;BME280;29610;49.022;12.114;2023-11-19T03:54:04;97610.28;;;6.59;100.00
18795;BME280;29610;49.022;12.114;2023-11-19T03:56:33;97606.59;;;6.55;100.00
18795;BME280;29610;49.022;12.114;2023-11-19T03:59:01;97605.50;;;6.56;100.00
18795;BME280;29610;49.022;12.114;2023-11-19T04:01:29;97602.69;;;6.48;100.00
18795;BME280;29610;49.022;12.114;2023-11-19T04:03:58;97601.00;;;6.52;100.00
18795;BME280;29610;49.022;12.114;2023-11-19T04:06:28;97605.28;;;6.53;100.00
18795;BME280;29610;49.022;12.114;2023-11-19T04:08:56;97600.56;;;6.45;100.00
18795;BME280;29610;49.022;12.114;2023-11-19T04:11:24;97605.41;;;6.48;100.00
18795;BME280;29610;49.022;12.114;2023-11-19T04:13:52;97610.97;;;6.51;100.00
18795;BME280;29610;49.022;12.114;2023-11-19T04:16:26;97601.84;;;6.34;100.00
18795;BME280;29610;49.022;12.114;2023-11-19T04:18:55;97601.50;;;6.54;100.00
18795;BME280;29610;49.022;12.114;2023-11-19T04:21:25;97594.09;;;6.46;100.00
18795;BME280;29610;49.022;12.114;2023-11-19T04:23:55;97589.47;;;6.46;100.00
18795;BME280;29610;49.022;12.114;2023-11-19T04:26:23;97579.69;;;6.50;100.00
18795;BME280;29610;49.022;12.114;2023-11-19T04:28:51;97587.50;;;6.52;100.00
18795;BME280;29610;49.022;12.114;2023-11-19T04:31:19;97578.50;;;6.43;100.00
18795;BME280;29610;49.022;12.114;2023-11-19T04:33:48;97582.66;;;6.35;100.00
18795;BME280;29610;49.022;12.114;2023-11-19T04:36:19;97573.09;;;6.43;100.00
18795;BME280;29610;49.022;12.114;2023-11-19T04:38:47;97575.50;;;6.44;100.00
18795;BME280;29610;49.022;12.114;2023-11-19T04:41:17;97575.00;;;6.56;100.00
18795;BME280;29610;49.022;12.114;2023-11-19T04:43:45;97568.81;;;6.55;100.00
18795;BME280;29610;49.022;12.114;2023-11-19T04:46:13;97561.41;;;6.47;100.00
18795;BME280;29610;49.022;12.114;2023-11-19T04:48:41;97548.66;;;6.34;100.00
18795;BME280;29610;49.022;12.114;2023-11-19T04:51:10;97538.84;;;6.25;100.00
18795;BME280;29610;49.022;12.114;2023-11-19T04:53:38;97519.38;;;6.28;100.00
18795;BME280;29610;49.022;12.114;2023-11-19T04:56:10;97504.38;;;6.35;100.00
18795;BME280;29610;49.022;12.114;2023-11-19T04:58:40;97476.91;;;6.33;100.00
18795;BME280;29610;49.022;12.114;2023-11-19T05:01:14;97456.81;;;6.39;100.00
18795;BME280;29610;49.022;12.114;2023-11-19T05:03:44;97468.31;;;6.31;100.00
18795;BME280;29610;49.022;12.114;2023-11-19T05:06:13;97486.00;;;6.37;100.00
18795;BME280;29610;49.022;12.114;2023-11-19T05:08:42;97516.19;;;6.39;100.00
18795;BME280;29610;49.022;12.114;2023-11-19T05:11:10;97523.19;;;6.40;100.00
18795;BME280;29610;49.022;12.114;2023-11-19T05:13:42;97520.69;;;6.44;100.00
18795;BME280;29610;49.022;12.114;2023-11-19T05:16:12;97534.66;;;6.32;100.00
18795;BME280;29610;49.022;12.114;2023-11-19T05:18:41;97531.75;;;6.29;100.00
18795;BME280;29610;49.022;12.114;2023-11-19T05:21:10;97534.06;;;6.22;100.00
18795;BME280;29610;49.022;12.114;2023-11-19T05:23:38;97521.25;;;6.14;100.00
18795;BME280;29610;49.022;12.114;2023-11-19T05:26:08;97541.25;;;6.26;100.00
18795;BME280;29610;49.022;12.114;2023-11-19T05:28:38;97558.47;;;6.44;100.00
18795;BME280;29610;49.022;12.114;2023-11-19T05:31:08;97557.88;;;6.47;100.00
18795;BME280;29610;49.022;12.114;2023-11-19T05:33:36;97560.50;;;6.38;100.00
18795;BME280;29610;49.022;12.114;2023-11-19T05:36:06;97569.00;;;6.59;100.00
18795;BME280;29610;49.022;12.114;2023-11-19T05:38:35;97560.50;;;6.52;100.00
18795;BME280;29610;49.022;12.114;2023-11-19T05:41:04;97533.97;;;6.40;100.00
18795;BME280;29610;49.022;12.114;2023-11-19T05:43:33;97545.41;;;6.51;100.00
18795;BME280;29610;49.022;12.114;2023-11-19T05:46:01;97562.09;;;6.53;100.00
18795;BME280;29610;49.022;12.114;2023-11-19T05:48:31;97556.72;;;6.66;100.00
18795;BME280;29610;49.022;12.114;2023-11-19T05:51:00;97555.50;;;6.59;100.00
18795;BME280;29610;49.022;12.114;2023-11-19T05:53:28;97546.09;;;6.56;100.00
18795;BME280;29610;49.022;12.114;2023-11-19T05:55:56;97550.28;;;6.49;100.00
18795;BME280;29610;49.022;12.114;2023-11-19T05:58:25;97545.50;;;6.46;100.00
18795;BME280;29610;49.022;12.114;2023-11-19T06:00:55;97527.78;;;6.53;100.00
18795;BME280;29610;49.022;12.114;2023-11-19T06:03:24;97523.91;;;6.59;100.00
18795;BME280;29610;49.022;12.114;2023-11-19T06:05:54;97522.59;;;6.57;100.00
18795;BME280;29610;49.022;12.114;2023-11-19T06:08:22;97527.78;;;6.40;100.00
18795;BME280;29610;49.022;12.114;2023-11-19T06:10:50;97523.13;;;6.59;100.00
18795;BME280;29610;49.022;12.114;2023-11-19T06:13:18;97527.72;;;6.58;100.00
18795;BME280;29610;49.022;12.114;2023-11-19T06:15:50;97525.00;;;6.58;100.00
18795;BME280;29610;49.022;12.114;2023-11-19T06:18:18;97522.09;;;6.41;100.00
18795;BME280;29610;49.022;12.114;2023-11-19T06:20:48;97521.09;;;6.51;100.00
18795;BME280;29610;49.022;12.114;2023-11-19T06:23:18;97524.59;;;6.51;100.00
18795;BME280;29610;49.022;12.114;2023-11-19T06:25:46;97529.81;;;6.48;100.00
18795;BME280;29610;49.022;12.114;2023-11-19T06:28:14;97522.09;;;6.55;100.00
18795;BME280;29610;49.022;12.114;2023-11-19T06:30:43;97516.59;;;6.60;100.00
18795;BME280;29610;49.022;12.114;2023-11-19T06:33:15;97514.00;;;6.55;100.00
18795;BME280;29610;49.022;12.114;2023-11-19T06:35:43;97516.50;;;6.65;100.00
18795;BME280;29610;49.022;12.114;2023-11-19T06:38:12;97522.91;;;6.55;100.00
18795;BME280;29610;49.022;12.114;2023-11-19T06:40:42;97530.81;;;6.65;100.00
18795;BME280;29610;49.022;12.114;2023-11-19T06:43:10;97530.91;;;6.60;100.00
18795;BME280;29610;49.022;12.114;2023-11-19T06:45:39;97532.91;;;6.68;100.00
18795;BME280;29610;49.022;12.114;2023-11-19T06:48:07;97529.63;;;6.71;100.00
18795;BME280;29610;49.022;12.114;2023-11-19T06:50:35;97532.09;;;6.68;100.00
18795;BME280;29610;49.022;12.114;2023-11-19T06:53:03;97514.31;;;6.53;100.00
18795;BME280;29610;49.022;12.114;2023-11-19T06:55:33;97511.47;;;6.45;100.00
18795;BME280;29610;49.022;12.114;2023-11-19T06:58:02;97508.59;;;6.55;100.00
18795;BME280;29610;49.022;12.114;2023-11-19T07:00:31;97503.91;;;6.47;100.00
18795;BME280;29610;49.022;12.114;2023-11-19T07:03:00;97508.09;;;6.53;100.00
18795;BME280;29610;49.022;12.114;2023-11-19T07:05:28;97504.00;;;6.55;100.00
18795;BME280;29610;49.022;12.114;2023-11-19T07:07:57;97511.72;;;6.62;100.00
18795;BME280;29610;49.022;12.114;2023-11-19T07:10:25;97513.81;;;6.65;100.00
18795;BME280;29610;49.022;12.114;2023-11-19T07:12:53;97511.81;;;6.57;100.00
18795;BME280;29610;49.022;12.114;2023-11-19T07:15:23;97517.13;;;6.62;100.00
18795;BME280;29610;49.022;12.114;2023-11-19T07:17:51;97513.59;;;6.61;100.00
18795;BME280;29610;49.022;12.114;2023-11-19T07:20:24;97522.59;;;6.70;100.00
18795;BME280;29610;49.022;12.114;2023-11-19T07:22:53;97515.50;;;6.74;100.00
18795;BME280;29610;49.022;12.114;2023-11-19T07:25:24;97522.03;;;6.73;100.00
18795;BME280;29610;49.022;12.114;2023-11-19T07:27:53;97517.91;;;6.62;100.00
18795;BME280;29610;49.022;12.114;2023-11-19T07:30:23;97528.38;;;6.64;100.00
18795;BME280;29610;49.022;12.114;2023-11-19T07:32:51;97532.50;;;6.61;100.00
18795;BME280;29610;49.022;12.114;2023-11-19T07:35:19;97534.72;;;6.73;100.00
18795;BME280;29610;49.022;12.114;2023-11-19T07:37:48;97536.31;;;6.74;100.00
18795;BME280;29610;49.022;12.114;2023-11-19T07:40:17;97530.81;;;6.79;100.00
18795;BME280;29610;49.022;12.114;2023-11-19T07:42:45;97526.41;;;6.56;100.00
18795;BME280;29610;49.022;12.114;2023-11-19T07:45:14;97531.81;;;6.56;100.00
18795;BME280;29610;49.022;12.114;2023-11-19T07:47:44;97531.09;;;6.64;100.00
18795;BME280;29610;49.022;12.114;2023-11-19T07:50:12;97533.22;;;6.67;100.00
18795;BME280;29610;49.022;12.114;2023-11-19T07:52:41;97523.59;;;6.61;100.00
18795;BME280;29610;49.022;12.114;2023-11-19T07:55:09;97525.00;;;6.58;100.00
18795;BME280;29610;49.022;12.114;2023-11-19T07:57:37;97527.09;;;6.61;100.00
18795;BME280;29610;49.022;12.114;2023-11-19T08:00:07;97530.81;;;6.65;100.00
18795;BME280;29610;49.022;12.114;2023-11-19T08:02:39;97537.31;;;6.64;100.00
18795;BME280;29610;49.022;12.114;2023-11-19T08:05:09;97531.09;;;6.64;100.00
18795;BME280;29610;49.022;12.114;2023-11-19T08:07:37;97529.13;;;6.56;100.00
18795;BME280;29610;49.022;12.114;2023-11-19T08:10:07;97525.22;;;6.62;100.00
18795;BME280;29610;49.022;12.114;2023-11-19T08:12:37;97525.59;;;6.69;100.00
18795;BME280;29610;49.022;12.114;2023-11-19T08:15:06;97533.31;;;6.62;100.00
18795;BME280;29610;49.022;12.114;2023-11-19T08:17:34;97530.69;;;6.70;100.00
18795;BME280;29610;49.022;12.114;2023-11-19T08:20:03;97539.63;;;6.84;100.00
18795;BME280;29610;49.022;12.114;2023-11-19T08:22:38;97533.50;;;6.92;100.00
18795;BME280;29610;49.022;12.114;2023-11-19T08:25:08;97518.59;;;6.81;100.00
18795;BME280;29610;49.022;12.114;2023-11-19T08:27:36;97526.69;;;6.81;100.00
18795;BME280;29610;49.022;12.114;2023-11-19T08:30:06;97526.41;;;6.83;100.00
18795;BME280;29610;49.022;12.114;2023-11-19T08:32:34;97511.66;;;7.02;100.00
18795;BME280;29610;49.022;12.114;2023-11-19T08:35:04;97508.88;;;7.07;100.00
18795;BME280;29610;49.022;12.114;2023-11-19T08:37:32;97525.38;;;7.19;100.00
18795;BME280;29610;49.022;12.114;2023-11-19T08:40:02;97525.44;;;7.28;100.00
18795;BME280;29610;49.022;12.114;2023-11-19T08:42:31;97528.84;;;7.20;100.00
18795;BME280;29610;49.022;12.114;2023-11-19T08:44:59;97530.06;;;7.27;100.00
18795;BME280;29610;49.022;12.114;2023-11-19T08:47:27;97524.66;;;7.14;100.00
18795;BME280;29610;49.022;12.114;2023-11-19T08:49:56;97524.81;;;7.31;100.00
18795;BME280;29610;49.022;12.114;2023-11-19T08:52:27;97527.84;;;7.29;100.00
18795;BME280;29610;49.022;12.114;2023-11-19T08:54:58;97530.84;;;7.28;100.00
18795;BME280;29610;49.022;12.114;2023-11-19T08:57:27;97529.72;;;7.42;100.00
18795;BME280;29610;49.022;12.114;2023-11-19T08:59:55;97534.28;;;7.56;100.00
18795;BME280;29610;49.022;12.114;2023-11-19T09:02:24;97526.56;;;7.63;100.00
18795;BME280;29610;49.022;12.114;2023-11-19T09:04:52;97523.66;;;7.59;100.00
18795;BME280;29610;49.022;12.114;2023-11-19T09:07:21;97520.69;;;7.69;100.00
18795;BME280;29610;49.022;12.114;2023-11-19T09:09:49;97515.25;;;7.83;100.00
18795;BME280;29610;49.022;12.114;2023-11-19T09:12:17;97518.38;;;7.76;100.00
18795;BME280;29610;49.022;12.114;2023-11-19T09:14:47;97513.34;;;7.83;100.00
18795;BME280;29610;49.022;12.114;2023-11-19T09:17:16;97514.63;;;7.86;100.00
18795;BME280;29610;49.022;12.114;2023-11-19T09:19:45;97518.19;;;7.73;100.00
18795;BME280;29610;49.022;12.114;2023-11-19T09:22:13;97521.47;;;7.83;100.00
18795;BME280;29610;49.022;12.114;2023-11-19T09:24:41;97521.19;;;7.93;100.00
18795;BME280;29610;49.022;12.114;2023-11-19T09:27:11;97521.00;;;8.12;100.00
18795;BME280;29610;49.022;12.114;2023-11-19T09:29:39;97518.31;;;8.12;100.00
18795;BME280;29610;49.022;12.114;2023-11-19T09:32:08;97518.34;;;8.42;100.00
18795;BME280;29610;49.022;12.114;2023-11-19T09:34:37;97518.03;;;8.44;100.00
18795;BME280;29610;49.022;12.114;2023-11-19T09:37:05;97520.88;;;8.78;100.00
18795;BME280;29610;49.022;12.114;2023-11-19T09:39:48;97508.19;;;8.96;100.00
18795;BME280;29610;49.022;12.114;2023-11-19T09:42:16;97509.34;;;9.29;100.00
18795;BME280;29610;49.022;12.114;2023-11-19T09:44:46;97510.66;;;9.31;100.00
18795;BME280;29610;49.022;12.114;2023-11-19T09:47:19;97500.31;;;9.33;100.00
18795;BME280;29610;49.022;12.114;2023-11-19T09:49:49;97500.59;;;9.40;100.00
18795;BME280;29610;49.022;12.114;2023-11-19T09:52:17;97491.03;;;9.51;100.00
18795;BME280;29610;49.022;12.114;2023-11-19T09:54:46;97501.59;;;9.70;100.00
18795;BME280;29610;49.022;12.114;2023-11-19T09:57:15;97503.31;;;10.00;100.00
18795;BME280;29610;49.022;12.114;2023-11-19T09:59:46;97509.50;;;10.26;100.00
18795;BME280;29610;49.022;12.114;2023-11-19T10:02:16;97489.72;;;10.08;100.00
18795;BME280;29610;49.022;12.114;2023-11-19T10:04:47;97500.09;;;10.32;100.00
18795;BME280;29610;49.022;12.114;2023-11-19T10:07:17;97506.91;;;10.47;100.00
18795;BME280;29610;49.022;12.114;2023-11-19T10:09:46;97503.72;;;10.36;100.00
18795;BME280;29610;49.022;12.114;2023-11-19T10:12:15;97506.44;;;10.45;100.00
18795;BME280;29610;49.022;12.114;2023-11-19T10:14:44;97501.16;;;10.48;100.00
18795;BME280;29610;49.022;12.114;2023-11-19T10:17:13;97497.00;;;10.42;100.00
18795;BME280;29610;49.022;12.114;2023-11-19T10:19:43;97494.44;;;10.46;100.00
18795;BME280;29610;49.022;12.114;2023-11-19T10:22:11;97487.59;;;10.40;100.00
18795;BME280;29610;49.022;12.114;2023-11-19T10:24:42;97482.88;;;10.57;100.00
18795;BME280;29610;49.022;12.114;2023-11-19T10:27:15;97481.81;;;10.79;100.00
18795;BME280;29610;49.022;12.114;2023-11-19T10:29:45;97480.97;;;10.87;100.00
18795;BME280;29610;49.022;12.114;2023-11-19T10:32:14;97477.19;;;11.08;100.00
18795;BME280;29610;49.022;12.114;2023-11-19T10:35:05;97479.22;;;11.20;100.00
18795;BME280;29610;49.022;12.114;2023-11-19T10:37:34;97471.91;;;11.12;100.00
18795;BME280;29610;49.022;12.114;2023-11-19T10:40:05;97480.63;;;10.97;100.00
18795;BME280;29610;49.022;12.114;2023-11-19T10:42:37;97473.31;;;10.89;100.00
18795;BME280;29610;49.022;12.114;2023-11-19T10:45:21;97462.69;;;10.75;100.00
18795;BME280;29610;49.022;12.114;2023-11-19T10:47:52;97457.69;;;10.77;100.00
18795;BME280;29610;49.022;12.114;2023-11-19T10:50:22;97456.78;;;10.65;100.00
18795;BME280;29610;49.022;12.114;2023-11-19T10:52:56;97452.34;;;10.60;100.00
18795;BME280;29610;49.022;12.114;2023-11-19T10:55:28;97445.59;;;10.66;100.00
18795;BME280;29610;49.022;12.114;2023-11-19T10:58:01;97445.88;;;10.35;100.00
18795;BME280;29610;49.022;12.114;2023-11-19T11:00:38;97472.97;;;9.98;100.00
18795;BME280;29610;49.022;12.114;2023-11-19T11:03:15;97473.38;;;10.34;100.00
18795;BME280;29610;49.022;12.114;2023-11-19T11:05:47;97453.25;;;10.35;100.00
18795;BME280;29610;49.022;12.114;2023-11-19T11:08:16;97456.63;;;10.32;100.00
18795;BME280;29610;49.022;12.114;2023-11-19T11:10:48;97446.81;;;10.48;100.00
18795;BME280;29610;49.022;12.114;2023-11-19T11:13:24;97449.66;;;10.52;100.00
18795;BME280;29610;49.022;12.114;2023-11-19T11:15:56;97447.88;;;10.64;100.00
18795;BME280;29610;49.022;12.114;2023-11-19T11:18:26;97447.72;;;10.61;100.00
18795;BME280;29610;49.022;12.114;2023-11-19T11:21:00;97450.25;;;10.66;100.00
18795;BME280;29610;49.022;12.114;2023-11-19T11:24:05;97448.13;;;10.71;100.00
18795;BME280;29610;49.022;12.114;2023-11-19T11:27:10;97448.50;;;10.61;100.00
18795;BME280;29610;49.022;12.114;2023-11-19T11:29:59;97456.22;;;10.51;100.00
18795;BME280;29610;49.022;12.114;2023-11-19T11:32:37;97453.44;;;10.21;100.00
18795;BME280;29610;49.022;12.114;2023-11-19T11:35:33;97451.53;;;10.22;100.00
18795;BME280;29610;49.022;12.114;2023-11-19T11:38:09;97456.41;;;10.46;100.00
18795;BME280;29610;49.022;12.114;2023-11-19T11:40:37;97445.50;;;10.54;100.00
18795;BME280;29610;49.022;12.114;2023-11-19T11:43:44;97451.88;;;10.87;100.00
18795;BME280;29610;49.022;12.114;2023-11-19T11:46:54;97443.31;;;11.26;100.00
18795;BME280;29610;49.022;12.114;2023-11-19T11:49:28;97443.16;;;11.85;100.00
18795;BME280;29610;49.022;12.114;2023-11-19T11:52:02;97428.97;;;12.24;100.00
18795;BME280;29610;49.022;12.114;2023-11-19T11:54:32;97417.19;;;12.56;100.00
18795;BME280;29610;49.022;12.114;2023-11-19T11:57:06;97426.41;;;12.75;100.00
18795;BME280;29610;49.022;12.114;2023-11-19T11:59:50;97422.41;;;12.97;100.00
18795;BME280;29610;49.022;12.114;2023-11-19T12:02:21;97421.03;;;12.91;100.00
18795;BME280;29610;49.022;12.114;2023-11-19T12:04:51;97409.69;;;12.89;100.00
18795;BME280;29610;49.022;12.114;2023-11-19T12:07:23;97418.91;;;12.84;100.00
18795;BME280;29610;49.022;12.114;2023-11-19T12:10:07;97399.00;;;12.96;100.00
18795;BME280;29610;49.022;12.114;2023-11-19T12:12:36;97400.34;;;13.14;100.00
18795;BME280;29610;49.022;12.114;2023-11-19T12:15:08;97406.94;;;13.25;100.00
18795;BME280;29610;49.022;12.114;2023-11-19T12:17:49;97405.59;;;13.19;100.00
18795;BME280;29610;49.022;12.114;2023-11-19T12:20:22;97404.50;;;13.36;100.00
18795;BME280;29610;49.022;12.114;2023-11-19T12:22:54;97393.06;;;13.58;100.00
18795;BME280;29610;49.022;12.114;2023-11-19T12:25:25;97389.25;;;13.47;100.00
18795;BME280;29610;49.022;12.114;2023-11-19T12:27:53;97392.00;;;13.35;100.00
18795;BME280;29610;49.022;12.114;2023-11-19T12:30:23;97395.47;;;13.47;100.00
18795;BME280;29610;49.022;12.114;2023-11-19T12:32:53;97368.69;;;13.65;100.00
18795;BME280;29610;49.022;12.114;2023-11-19T12:35:23;97372.56;;;13.64;100.00
18795;BME280;29610;49.022;12.114;2023-11-19T12:37:52;97378.25;;;13.86;100.00
18795;BME280;29610;49.022;12.114;2023-11-19T12:40:24;97379.44;;;14.01;100.00
18795;BME280;29610;49.022;12.114;2023-11-19T12:42:54;97381.72;;;13.99;100.00
18795;BME280;29610;49.022;12.114;2023-11-19T12:45:23;97375.28;;;14.22;100.00
18795;BME280;29610;49.022;12.114;2023-11-19T12:48:05;97369.13;;;14.72;100.00
18795;BME280;29610;49.022;12.114;2023-11-19T12:50:51;97364.41;;;14.53;100.00
18795;BME280;29610;49.022;12.114;2023-11-19T12:53:21;97355.53;;;14.60;100.00
18795;BME280;29610;49.022;12.114;2023-11-19T12:55:53;97364.31;;;14.50;100.00
18795;BME280;29610;49.022;12.114;2023-11-19T12:58:29;97359.66;;;14.69;100.00
18795;BME280;29610;49.022;12.114;2023-11-19T13:01:03;97360.44;;;14.86;100.00
18795;BME280;29610;49.022;12.114;2023-11-19T13:03:33;97358.41;;;14.98;100.00
18795;BME280;29610;49.022;12.114;2023-11-19T13:06:04;97345.97;;;14.85;100.00